Kezdőlap
METAR-TAF:

METAR-TAF

Repülőterek :

Tekamah Municipal Airport

Tekamah, Nebraska, Amerikai Egyesült Államok

földrajzi szélesség: 41-46-01N, földrajzi hosszúság: 096-10-40W, magasság: 313 m

Jelenlegi meteorológiai megfigyelések

A jelentés 27 perccel ezelõtt készült, 14:54 UTC
Északnyugati szél 17 kt széllökések: 25 kt
Hőmérséklet 12°C
Páratartalom 50%
Légköri nyomás 1026 hPa
Látótávolság: 16.1 km
Derült ég

METAR: KTQE 011454Z AUTO 32017G25KT 10SM CLR 12/02 A3029 RMK AO2 PK WND 32026/1432 SLP256 T01170022 51022

Idő: 10:21 (15:21 UTC)


TAF: hiányzik

Meteorológiai megfigyelések és előrejelzések több, mint 4000 repülőtéren (METAR és TAF jelentéseket).

A térképen piros és sárga pontok jelzik az elérhető meteorológiai állomásokat.

Mozgassa az egeret a pont fölött, hogy megjelenjen az állomás neve.

Azután kattintson az időjárási megfigyelések és előrejelzések megtekintéséhez.

A térkép megváltoztatása: kattintson a fekete keresztel jelölt zöld gombra ráközelítéshez, a vonallal jelölt zöld gombra távolításhoz, vagy a zöld nyilakra a szomszédos térképek eléréséhez.


METAR-TAF: